Time;durP1;ratioP1;P1;durP2;ratioP2;P2;SDS_P1;SDS_P2;PMS_P1;PMS_P2;Temp;Humidity;BMP_temperature;BMP_pressure;BME280_temperature;BME280_humidity;BME280_pressure;Samples;Min_cycle;Max_cycle;Signal;HPM_P1;HPM_P2
2022/05/25 00:00:01;;;;;;;2.67;0.80;;;;;;;;;;5035918;28;20739;-70
2022/05/25 00:02:28;;;;;;;3.63;0.85;;;;;;;;;;5037662;28;21133;-71
2022/05/25 00:04:54;;;;;;;0.63;0.60;;;;;;;;;;5034831;28;20036;-72
2022/05/25 00:07:22;;;;;;;1.83;0.85;;;;;;;;;;5039083;28;20144;-71
2022/05/25 00:09:49;;;;;;;4.78;0.93;;;;;;;;;;5038350;28;20416;-71
2022/05/25 00:12:17;;;;;;;1.17;0.88;;;;;;;;;;5040728;28;20051;-72
2022/05/25 00:14:43;;;;;;;5.57;1.23;;;;;;;;;;5041471;28;20191;-71
2022/05/25 00:17:09;;;;;;;1.42;0.70;;;;;;;;;;5039635;28;20045;-70
2022/05/25 00:22:20;;;;;;;2.72;1.00;;;;;;;;;;5037960;28;20041;-69
2022/05/25 00:24:46;;;;;;;0.70;0.47;;;;;;;;;;5043490;28;20056;-70
2022/05/25 00:27:12;;;;;;;1.77;0.65;;;;;;;;;;5040092;28;20455;-70
2022/05/25 00:29:38;;;;;;;3.05;0.90;;;;;;;;;;5040294;28;20174;-69
2022/05/25 00:32:06;;;;;;;0.90;0.60;;;;;;;;;;5037856;28;20049;-70
2022/05/25 00:34:31;;;;;;;3.13;0.73;;;;;;;;;;5041897;28;20049;-70
2022/05/25 00:36:58;;;;;;;0.60;0.60;;;;;;;;;;5039931;28;20051;-70
2022/05/25 00:39:24;;;;;;;0.55;0.50;;;;;;;;;;5043932;28;20049;-70
2022/05/25 00:41:51;;;;;;;1.45;0.70;;;;;;;;;;5039118;28;20767;-70
2022/05/25 00:44:17;;;;;;;2.20;0.70;;;;;;;;;;5039850;28;20059;-69
2022/05/25 00:46:44;;;;;;;1.30;0.77;;;;;;;;;;5038336;28;20112;-73
2022/05/25 00:49:22;;;;;;;1.88;0.85;;;;;;;;;;5040782;28;20555;-69
2022/05/25 00:51:56;;;;;;;2.10;0.68;;;;;;;;;;5034748;28;20049;-70
2022/05/25 00:54:32;;;;;;;1.88;0.70;;;;;;;;;;5037775;28;20436;-68
2022/05/25 00:57:10;;;;;;;1.98;0.90;;;;;;;;;;5041666;28;20106;-72
2022/05/25 00:59:51;;;;;;;1.48;0.70;;;;;;;;;;5040570;28;20051;-70
2022/05/25 01:02:17;;;;;;;2.80;0.90;;;;;;;;;;5036252;28;20572;-69
2022/05/25 01:04:44;;;;;;;1.42;0.70;;;;;;;;;;5038101;28;20045;-70
2022/05/25 01:07:28;;;;;;;0.82;0.60;;;;;;;;;;5042159;28;20091;-70
2022/05/25 01:10:43;;;;;;;1.52;0.85;;;;;;;;;;5038856;28;20049;-71
2022/05/25 01:13:37;;;;;;;1.80;0.80;;;;;;;;;;5024489;28;20056;-70
2022/05/25 01:16:28;;;;;;;2.17;1.00;;;;;;;;;;5035590;28;20321;-69
2022/05/25 01:19:27;;;;;;;3.03;1.13;;;;;;;;;;5041897;28;20060;-69
2022/05/25 01:22:30;;;;;;;5.07;1.15;;;;;;;;;;5036040;28;20045;-70
2022/05/25 01:25:14;;;;;;;4.60;1.20;;;;;;;;;;5038650;28;20160;-72
2022/05/25 01:27:48;;;;;;;2.40;0.90;;;;;;;;;;5037046;28;20084;-69
2022/05/25 01:30:20;;;;;;;3.22;1.00;;;;;;;;;;5036716;28;20508;-71
2022/05/25 01:33:14;;;;;;;3.33;0.95;;;;;;;;;;5033694;28;20038;-70
2022/05/25 01:36:21;;;;;;;2.42;0.90;;;;;;;;;;5038597;28;20068;-70
2022/05/25 01:38:52;;;;;;;3.28;0.90;;;;;;;;;;5033413;28;20056;-69
2022/05/25 01:41:20;;;;;;;3.10;0.85;;;;;;;;;;5026194;28;20099;-71
2022/05/25 01:43:58;;;;;;;4.80;1.00;;;;;;;;;;5009028;28;20144;-71
2022/05/25 01:46:34;;;;;;;1.73;0.82;;;;;;;;;;5027975;28;20052;-70
2022/05/25 01:49:05;;;;;;;2.58;1.00;;;;;;;;;;5031945;28;20360;-68
2022/05/25 01:51:55;;;;;;;4.50;1.00;;;;;;;;;;5027413;28;20057;-70
2022/05/25 01:54:27;;;;;;;2.78;1.20;;;;;;;;;;5026870;28;20191;-70
2022/05/25 01:56:57;;;;;;;3.17;0.90;;;;;;;;;;5027666;28;20061;-70
2022/05/25 01:59:23;;;;;;;1.58;0.80;;;;;;;;;;5032608;28;20155;-69
2022/05/25 02:04:40;;;;;;;2.30;0.82;;;;;;;;;;5036972;28;20675;-68
2022/05/25 02:07:06;;;;;;;3.40;0.98;;;;;;;;;;5034219;28;20050;-70
2022/05/25 02:10:13;;;;;;;1.60;1.08;;;;;;;;;;5037233;28;20087;-69
2022/05/25 02:13:13;;;;;;;4.85;0.80;;;;;;;;;;5008870;28;20045;-70
2022/05/25 02:15:50;;;;;;;1.63;1.10;;;;;;;;;;5017047;28;20045;-70
2022/05/25 02:18:45;;;;;;;6.65;1.10;;;;;;;;;;5010356;28;20049;-69
2022/05/25 02:21:31;;;;;;;2.15;1.00;;;;;;;;;;5008973;28;20120;-72
2022/05/25 02:24:09;;;;;;;2.15;1.15;;;;;;;;;;5012199;28;20065;-71
2022/05/25 02:26:46;;;;;;;1.98;0.95;;;;;;;;;;5017043;28;20053;-70
2022/05/25 02:29:29;;;;;;;4.25;1.38;;;;;;;;;;5013436;28;20072;-68
2022/05/25 02:32:02;;;;;;;1.98;1.10;;;;;;;;;;5010563;28;20057;-69
2022/05/25 02:34:28;;;;;;;4.50;1.42;;;;;;;;;;5012806;28;20134;-70
2022/05/25 02:36:56;;;;;;;2.03;1.00;;;;;;;;;;5017249;28;20076;-67
2022/05/25 02:39:23;;;;;;;1.80;0.80;;;;;;;;;;5003313;28;20058;-71
2022/05/25 02:41:52;;;;;;;1.60;1.10;;;;;;;;;;5015266;28;20060;-69
2022/05/25 02:44:19;;;;;;;2.60;0.88;;;;;;;;;;5014300;28;20526;-70
2022/05/25 02:46:45;;;;;;;1.85;0.88;;;;;;;;;;5010456;28;20500;-69
2022/05/25 02:49:12;;;;;;;2.70;0.98;;;;;;;;;;5040365;28;20094;-68
2022/05/25 02:51:39;;;;;;;3.30;0.80;;;;;;;;;;5042492;28;20148;-70
2022/05/25 02:54:06;;;;;;;2.70;0.70;;;;;;;;;;5042197;28;20068;-69
2022/05/25 02:56:33;;;;;;;2.05;0.98;;;;;;;;;;5038271;28;20049;-69
2022/05/25 02:58:58;;;;;;;2.25;0.95;;;;;;;;;;5042476;28;20522;-70
2022/05/25 03:01:25;;;;;;;3.22;1.10;;;;;;;;;;5035825;28;21018;-68
2022/05/25 03:03:51;;;;;;;3.60;1.10;;;;;;;;;;5029867;28;20049;-70
2022/05/25 03:06:18;;;;;;;1.85;0.98;;;;;;;;;;5040461;28;20109;-69
2022/05/25 03:08:45;;;;;;;5.03;1.10;;;;;;;;;;5036709;28;20052;-69
2022/05/25 03:11:11;;;;;;;3.42;0.95;;;;;;;;;;5040205;28;20045;-69
2022/05/25 03:13:37;;;;;;;1.85;0.80;;;;;;;;;;5041820;28;20216;-69
2022/05/25 03:16:07;;;;;;;1.80;1.00;;;;;;;;;;5031874;28;20045;-70
2022/05/25 03:18:34;;;;;;;2.35;0.80;;;;;;;;;;5041009;28;20049;-70
2022/05/25 03:21:00;;;;;;;2.20;1.00;;;;;;;;;;5039530;28;20448;-70
2022/05/25 03:23:25;;;;;;;2.40;1.30;;;;;;;;;;5034668;28;20044;-68
2022/05/25 03:25:51;;;;;;;4.45;0.93;;;;;;;;;;5041838;28;20467;-69
2022/05/25 03:28:17;;;;;;;2.70;1.00;;;;;;;;;;5042056;28;20307;-70
2022/05/25 03:30:45;;;;;;;3.08;1.27;;;;;;;;;;5044094;28;20049;-69
2022/05/25 03:33:11;;;;;;;4.60;1.00;;;;;;;;;;5042826;28;20439;-69
2022/05/25 03:35:37;;;;;;;2.85;0.85;;;;;;;;;;5032005;28;20038;-69
2022/05/25 03:38:04;;;;;;;2.97;0.90;;;;;;;;;;5043190;28;20055;-69
2022/05/25 03:40:30;;;;;;;3.38;0.80;;;;;;;;;;5049442;28;20128;-70
2022/05/25 03:42:57;;;;;;;3.92;0.80;;;;;;;;;;5045961;28;20140;-69
2022/05/25 03:45:23;;;;;;;1.98;0.80;;;;;;;;;;5036139;28;20053;-69
2022/05/25 03:47:49;;;;;;;1.27;0.70;;;;;;;;;;5045078;28;20042;-68
2022/05/25 03:50:18;;;;;;;2.10;0.60;;;;;;;;;;5046535;28;20115;-68
2022/05/25 03:52:45;;;;;;;1.25;0.70;;;;;;;;;;5051315;28;20507;-68
2022/05/25 03:55:11;;;;;;;2.15;0.63;;;;;;;;;;5040283;28;20131;-68
2022/05/25 03:57:37;;;;;;;0.60;0.60;;;;;;;;;;5043348;28;20096;-68
2022/05/25 04:00:05;;;;;;;0.80;0.68;;;;;;;;;;5037320;28;20524;-70
2022/05/25 04:02:31;;;;;;;1.30;0.80;;;;;;;;;;5040551;28;20053;-70
2022/05/25 04:05:10;;;;;;;1.40;0.68;;;;;;;;;;5036841;28;20441;-69
2022/05/25 04:07:42;;;;;;;2.35;0.80;;;;;;;;;;5044730;28;20239;-68
2022/05/25 04:10:12;;;;;;;1.58;0.70;;;;;;;;;;5037466;28;20076;-71
2022/05/25 04:12:40;;;;;;;1.77;0.88;;;;;;;;;;5045607;28;20412;-76
2022/05/25 04:15:07;;;;;;;3.25;0.75;;;;;;;;;;5045959;28;20068;-70
2022/05/25 04:17:33;;;;;;;1.83;0.80;;;;;;;;;;5042191;28;20087;-73
2022/05/25 04:19:59;;;;;;;3.28;0.60;;;;;;;;;;5041502;28;20037;-71
2022/05/25 04:22:25;;;;;;;0.75;0.70;;;;;;;;;;5041890;28;20049;-71
2022/05/25 04:24:51;;;;;;;1.38;0.80;;;;;;;;;;5044439;28;20412;-72
2022/05/25 04:27:18;;;;;;;1.08;0.80;;;;;;;;;;5043264;28;20052;-70
2022/05/25 04:29:44;;;;;;;0.88;0.80;;;;;;;;;;5042649;28;20040;-71
2022/05/25 04:32:10;;;;;;;2.13;0.77;;;;;;;;;;5048591;28;20045;-72
2022/05/25 04:34:36;;;;;;;1.55;0.90;;;;;;;;;;5039034;28;20519;-70
2022/05/25 04:39:47;;;;;;;;;;;;;;;;;;5036471;28;20049;-71
2022/05/25 04:42:12;;;;;;;3.63;0.80;;;;;;;;;;5037598;28;19974;-70
2022/05/25 04:44:38;;;;;;;2.25;0.80;;;;;;;;;;5040590;28;20044;-71
2022/05/25 04:47:08;;;;;;;1.83;0.93;;;;;;;;;;5041600;28;20049;-71
2022/05/25 04:49:34;;;;;;;1.75;0.90;;;;;;;;;;5041118;28;20047;-70
2022/05/25 04:52:00;;;;;;;2.55;1.40;;;;;;;;;;5040162;28;20500;-72
2022/05/25 04:54:33;;;;;;;2.45;1.08;;;;;;;;;;5053816;27;20904;-72
2022/05/25 04:59:44;;;;;;;4.03;1.30;;;;;;;;;;5054976;28;20511;-71
2022/05/25 05:02:10;;;;;;;3.78;1.30;;;;;;;;;;5054240;28;20045;-71
2022/05/25 05:04:37;;;;;;;5.28;1.40;;;;;;;;;;5051077;28;20049;-71
2022/05/25 05:07:04;;;;;;;5.68;1.70;;;;;;;;;;5049646;28;20449;-70
2022/05/25 05:09:34;;;;;;;7.90;1.52;;;;;;;;;;5050389;28;20049;-72
2022/05/25 05:12:00;;;;;;;3.63;1.30;;;;;;;;;;5050623;28;20057;-72
2022/05/25 05:14:26;;;;;;;3.90;1.40;;;;;;;;;;5050526;28;20415;-70
2022/05/25 05:17:00;;;;;;;3.45;1.35;;;;;;;;;;5046480;28;21245;-71
2022/05/25 05:19:27;;;;;;;10.43;1.10;;;;;;;;;;5053916;28;20060;-71
2022/05/25 05:21:54;;;;;;;2.03;1.20;;;;;;;;;;5054061;28;20239;-72
2022/05/25 05:24:21;;;;;;;3.53;1.08;;;;;;;;;;5046176;28;20040;-70
2022/05/25 05:26:47;;;;;;;1.17;0.90;;;;;;;;;;5048811;28;20052;-71
2022/05/25 05:29:13;;;;;;;1.50;0.90;;;;;;;;;;5053433;28;20463;-70
2022/05/25 05:31:39;;;;;;;3.17;0.90;;;;;;;;;;5054196;28;20059;-70
2022/05/25 05:34:05;;;;;;;1.85;0.82;;;;;;;;;;5053662;28;20048;-70
2022/05/25 05:36:36;;;;;;;2.58;1.20;;;;;;;;;;5053345;28;20055;-69
2022/05/25 05:39:10;;;;;;;3.35;1.58;;;;;;;;;;5049172;28;20040;-71
2022/05/25 05:41:45;;;;;;;8.27;1.55;;;;;;;;;;5052456;28;20041;-72
2022/05/25 05:44:14;;;;;;;2.55;1.25;;;;;;;;;;5052994;28;20243;-69
2022/05/25 05:46:42;;;;;;;1.33;1.20;;;;;;;;;;5049101;28;20049;-68
2022/05/25 05:49:09;;;;;;;2.80;1.17;;;;;;;;;;5048072;28;20430;-67
2022/05/25 05:51:36;;;;;;;1.83;1.10;;;;;;;;;;5051215;28;20267;-70
2022/05/25 05:54:03;;;;;;;6.65;1.05;;;;;;;;;;5047568;28;20498;-67
2022/05/25 05:56:32;;;;;;;2.63;1.05;;;;;;;;;;5046096;28;20048;-70
2022/05/25 05:58:59;;;;;;;4.18;1.02;;;;;;;;;;5051551;28;20111;-69
2022/05/25 06:01:25;;;;;;;1.42;0.80;;;;;;;;;;5048205;28;20413;-68
2022/05/25 06:03:51;;;;;;;1.63;0.80;;;;;;;;;;5048844;28;20102;-69
2022/05/25 06:06:17;;;;;;;1.15;0.82;;;;;;;;;;5038401;28;20076;-69
2022/05/25 06:08:46;;;;;;;2.53;0.93;;;;;;;;;;5032786;28;20054;-70
2022/05/25 06:11:17;;;;;;;1.67;0.82;;;;;;;;;;5036364;28;20091;-71
2022/05/25 06:13:43;;;;;;;2.95;1.02;;;;;;;;;;5037147;28;20655;-68
2022/05/25 06:21:38;;;;;;;3.25;1.30;;;;;;;;;;5039697;28;20498;-70
2022/05/25 06:24:05;;;;;;;2.63;0.90;;;;;;;;;;5035924;28;20047;-71
2022/05/25 06:26:31;;;;;;;6.10;1.23;;;;;;;;;;5037296;28;20048;-68
2022/05/25 06:29:01;;;;;;;2.33;1.25;;;;;;;;;;5034872;28;20443;-67
2022/05/25 06:31:28;;;;;;;4.93;1.30;;;;;;;;;;5039572;28;20197;-68
2022/05/25 06:33:55;;;;;;;3.13;0.90;;;;;;;;;;5029707;28;20596;-70
2022/05/25 06:36:27;;;;;;;2.78;1.20;;;;;;;;;;5033219;28;20573;-68
2022/05/25 06:38:53;;;;;;;4.70;1.13;;;;;;;;;;5030586;28;20049;-72
2022/05/25 06:41:20;;;;;;;2.88;0.98;;;;;;;;;;5035144;28;20080;-69
2022/05/25 06:43:46;;;;;;;3.53;1.10;;;;;;;;;;5039869;28;20517;-68
2022/05/25 06:46:14;;;;;;;4.80;1.58;;;;;;;;;;5036373;28;20045;-64
2022/05/25 06:48:40;;;;;;;2.22;0.90;;;;;;;;;;5046927;28;20071;-69
2022/05/25 06:51:18;;;;;;;1.52;0.90;;;;;;;;;;5048066;28;20424;-69
2022/05/25 06:53:44;;;;;;;5.18;0.82;;;;;;;;;;5052968;28;20057;-68
2022/05/25 06:56:10;;;;;;;3.42;1.08;;;;;;;;;;5066351;28;20248;-67
2022/05/25 06:58:36;;;;;;;2.10;0.90;;;;;;;;;;5040613;28;20060;-71
2022/05/25 07:01:04;;;;;;;3.50;0.90;;;;;;;;;;5067158;28;20052;-68
2022/05/25 07:03:31;;;;;;;3.33;1.13;;;;;;;;;;5066159;28;20148;-69
2022/05/25 07:05:57;;;;;;;3.58;1.00;;;;;;;;;;5058945;28;20053;-67
2022/05/25 07:08:24;;;;;;;1.70;0.80;;;;;;;;;;5054383;28;20048;-71
2022/05/25 07:10:50;;;;;;;2.95;1.00;;;;;;;;;;5054492;28;20043;-67
2022/05/25 07:13:17;;;;;;;6.25;1.95;;;;;;;;;;5065352;28;20147;-68
2022/05/25 07:15:44;;;;;;;1.27;0.90;;;;;;;;;;5049541;28;20594;-68
2022/05/25 07:18:10;;;;;;;3.92;0.70;;;;;;;;;;5062790;28;20057;-68
2022/05/25 07:20:36;;;;;;;2.30;0.82;;;;;;;;;;5061575;28;20131;-69
2022/05/25 07:23:02;;;;;;;4.82;1.30;;;;;;;;;;5067103;28;20047;-67
2022/05/25 07:25:29;;;;;;;1.98;0.90;;;;;;;;;;5053210;28;20714;-67
2022/05/25 07:27:55;;;;;;;3.00;0.73;;;;;;;;;;5066068;28;20052;-68
2022/05/25 07:30:21;;;;;;;0.50;0.40;;;;;;;;;;5069362;28;20048;-67
2022/05/25 07:32:48;;;;;;;0.95;0.40;;;;;;;;;;5054306;28;20192;-66
2022/05/25 07:35:16;;;;;;;1.48;0.70;;;;;;;;;;5051535;28;20045;-67
2022/05/25 07:37:48;;;;;;;1.92;0.47;;;;;;;;;;5062717;28;20130;-69
2022/05/25 07:40:19;;;;;;;1.05;0.68;;;;;;;;;;5052659;28;20486;-70
2022/05/25 07:42:49;;;;;;;0.93;0.63;;;;;;;;;;5043544;28;20464;-67
2022/05/25 07:45:15;;;;;;;2.80;0.73;;;;;;;;;;5044498;28;20053;-68
2022/05/25 07:47:41;;;;;;;1.30;0.60;;;;;;;;;;5036664;28;20352;-67
2022/05/25 07:50:07;;;;;;;2.70;0.60;;;;;;;;;;5044526;28;20037;-69
2022/05/25 07:52:38;;;;;;;2.55;0.60;;;;;;;;;;5045208;28;20110;-70
2022/05/25 07:55:08;;;;;;;0.55;0.55;;;;;;;;;;5061063;28;20647;-69
2022/05/25 07:57:35;;;;;;;1.83;0.70;;;;;;;;;;5045483;28;20547;-67
2022/05/25 08:00:02;;;;;;;1.38;0.70;;;;;;;;;;5047201;28;20051;-68
2022/05/25 08:08:04;;;;;;;3.58;0.90;;;;;;;;;;5043174;28;20126;-68
2022/05/25 08:10:31;;;;;;;0.90;0.50;;;;;;;;;;5044892;28;20044;-69
2022/05/25 08:12:59;;;;;;;1.08;0.40;;;;;;;;;;5049669;28;20108;-69
2022/05/25 08:15:27;;;;;;;1.05;0.40;;;;;;;;;;5050381;28;20056;-68
2022/05/25 08:17:53;;;;;;;2.85;1.00;;;;;;;;;;5043585;28;20094;-71
2022/05/25 08:20:21;;;;;;;1.38;0.80;;;;;;;;;;5049004;28;20041;-68
2022/05/25 08:22:48;;;;;;;2.88;0.55;;;;;;;;;;5062969;28;20045;-70
2022/05/25 08:25:17;;;;;;;1.00;0.40;;;;;;;;;;5045402;28;20077;-69
2022/05/25 08:27:43;;;;;;;1.63;0.60;;;;;;;;;;5047306;28;20554;-68
2022/05/25 08:30:13;;;;;;;4.10;0.52;;;;;;;;;;5062991;28;20052;-73
2022/05/25 08:32:39;;;;;;;2.22;0.60;;;;;;;;;;5068314;28;20048;-73
2022/05/25 08:35:06;;;;;;;3.20;0.50;;;;;;;;;;5062766;28;20048;-72
2022/05/25 08:37:32;;;;;;;0.52;0.30;;;;;;;;;;5066390;28;20044;-69
2022/05/25 08:39:58;;;;;;;4.05;0.70;;;;;;;;;;5068151;28;20225;-68
2022/05/25 08:42:26;;;;;;;1.33;0.50;;;;;;;;;;5067309;28;20147;-71
2022/05/25 08:44:53;;;;;;;0.63;0.50;;;;;;;;;;5054348;28;20044;-69
2022/05/25 08:47:20;;;;;;;0.70;0.50;;;;;;;;;;5053656;28;20411;-68
2022/05/25 08:49:49;;;;;;;0.85;0.47;;;;;;;;;;5050764;28;20049;-68
2022/05/25 08:52:30;;;;;;;1.45;0.60;;;;;;;;;;5046873;28;20045;-69
2022/05/25 08:55:00;;;;;;;3.47;0.55;;;;;;;;;;5064932;28;20041;-69
2022/05/25 08:57:38;;;;;;;1.75;0.63;;;;;;;;;;5050171;28;20048;-69
2022/05/25 09:00:13;;;;;;;0.68;0.52;;;;;;;;;;5044806;28;20045;-68
2022/05/25 09:02:52;;;;;;;1.83;0.82;;;;;;;;;;5044723;28;20041;-68
2022/05/25 09:05:40;;;;;;;4.38;0.95;;;;;;;;;;5055283;28;20052;-69
2022/05/25 09:08:26;;;;;;;2.92;1.17;;;;;;;;;;5042652;28;20484;-71
2022/05/25 09:14:24;;;;;;;2.33;0.47;;;;;;;;;;5029087;28;20128;-71
2022/05/25 09:16:54;;;;;;;1.65;0.43;;;;;;;;;;5035802;28;20433;-70
2022/05/25 09:19:26;;;;;;;0.70;0.68;;;;;;;;;;5019789;28;20041;-70
2022/05/25 09:22:06;;;;;;;1.20;0.82;;;;;;;;;;5021330;28;20517;-69
2022/05/25 09:24:33;;;;;;;0.90;0.80;;;;;;;;;;5018420;28;20096;-73
2022/05/25 09:27:01;;;;;;;1.88;0.70;;;;;;;;;;5018840;28;20082;-68
2022/05/25 09:29:27;;;;;;;2.67;0.73;;;;;;;;;;5012180;28;20038;-69
2022/05/25 09:31:55;;;;;;;1.23;0.70;;;;;;;;;;5028927;28;20048;-68
2022/05/25 09:34:50;;;;;;;4.00;1.20;;;;;;;;;;5022700;28;20045;-69
2022/05/25 09:37:42;;;;;;;3.00;1.05;;;;;;;;;;5003847;28;20037;-71
2022/05/25 09:40:34;;;;;;;3.38;1.25;;;;;;;;;;5001140;28;20514;-68
2022/05/25 09:43:03;;;;;;;4.72;0.80;;;;;;;;;;4983938;28;20045;-68
2022/05/25 09:45:54;;;;;;;13.50;3.40;;;;;;;;;;4988808;28;20046;-68
2022/05/25 09:48:28;;;;;;;5.30;2.78;;;;;;;;;;5004916;28;20042;-71
2022/05/25 09:51:05;;;;;;;3.25;1.65;;;;;;;;;;5004447;28;20132;-68
2022/05/25 09:53:39;;;;;;;1.70;1.20;;;;;;;;;;5002815;28;20050;-70
2022/05/25 09:56:16;;;;;;;2.53;1.10;;;;;;;;;;5007156;28;20045;-67
2022/05/25 09:58:49;;;;;;;2.67;1.15;;;;;;;;;;5007180;28;20550;-70
2022/05/25 10:01:23;;;;;;;3.33;1.30;;;;;;;;;;5006536;28;20416;-72
2022/05/25 10:03:50;;;;;;;2.83;0.93;;;;;;;;;;5007943;28;20083;-70
2022/05/25 10:06:17;;;;;;;2.28;0.98;;;;;;;;;;4993403;28;20046;-70
2022/05/25 10:08:44;;;;;;;2.28;0.90;;;;;;;;;;5000013;28;20480;-68
2022/05/25 10:11:31;;;;;;;3.05;0.70;;;;;;;;;;5004463;28;20167;-71
2022/05/25 10:14:16;;;;;;;8.07;1.10;;;;;;;;;;5009772;28;20053;-70
2022/05/25 10:16:42;;;;;;;2.33;1.00;;;;;;;;;;5038291;28;20485;-68
2022/05/25 10:19:17;;;;;;;1.90;0.90;;;;;;;;;;5020787;28;20486;-69
2022/05/25 10:21:52;;;;;;;2.60;1.30;;;;;;;;;;5033769;28;20182;-68
2022/05/25 10:24:27;;;;;;;1.80;0.88;;;;;;;;;;5044118;28;20042;-68
2022/05/25 10:26:57;;;;;;;;;;;;;;;;;;5030823;28;20136;-69
2022/05/25 10:36:45;;;;;;;2.58;1.00;;;;;;;;;;5030149;28;19929;-70
2022/05/25 10:38:13;;;;;;;1.85;0.75;;;;;;;;;;5027731;28;20044;-69
2022/05/25 10:40:45;;;;;;;3.08;0.98;;;;;;;;;;5034111;28;20132;-68
2022/05/25 10:43:24;;;;;;;2.42;0.88;;;;;;;;;;5027680;28;20041;-69
2022/05/25 10:45:53;;;;;;;2.15;0.93;;;;;;;;;;5029468;28;20049;-67
2022/05/25 10:48:40;;;;;;;1.98;1.20;;;;;;;;;;5033756;28;20045;-69
2022/05/25 10:51:15;;;;;;;2.42;0.88;;;;;;;;;;5038698;28;20136;-69
2022/05/25 10:56:56;;;;;;;5.57;2.00;;;;;;;;;;5031405;28;20048;-69
2022/05/25 10:59:40;;;;;;;0.63;0.52;;;;;;;;;;5040065;28;20480;-70
2022/05/25 11:02:37;;;;;;;1.80;0.70;;;;;;;;;;5026429;28;20041;-69
2022/05/25 11:05:13;;;;;;;1.35;0.90;;;;;;;;;;5017957;28;20514;-69
2022/05/25 11:07:41;;;;;;;6.10;1.40;;;;;;;;;;5030835;28;20491;-68
2022/05/25 11:10:28;;;;;;;24.05;3.22;;;;;;;;;;5023263;28;20267;-69
2022/05/25 11:13:18;;;;;;;1.50;0.80;;;;;;;;;;5023716;28;20484;-70
2022/05/25 11:15:47;;;;;;;2.25;0.90;;;;;;;;;;5029168;28;20407;-70
2022/05/25 11:18:29;;;;;;;5.05;1.60;;;;;;;;;;5019721;28;20409;-69
2022/05/25 11:21:16;;;;;;;4.60;2.22;;;;;;;;;;5027365;28;20817;-67
2022/05/25 11:24:03;;;;;;;6.90;2.85;;;;;;;;;;5025431;28;20467;-70
2022/05/25 11:26:47;;;;;;;7.13;3.28;;;;;;;;;;5030388;28;20048;-69
2022/05/25 11:29:23;;;;;;;9.47;4.30;;;;;;;;;;5029338;28;20060;-70
2022/05/25 11:32:04;;;;;;;3.50;1.65;;;;;;;;;;5029714;28;20557;-68
2022/05/25 11:34:33;;;;;;;4.68;1.15;;;;;;;;;;5028025;28;20124;-71
2022/05/25 11:37:19;;;;;;;6.43;2.30;;;;;;;;;;5015433;28;20103;-68
2022/05/25 11:39:57;;;;;;;1.13;0.80;;;;;;;;;;5017037;28;20069;-72
2022/05/25 11:43:07;;;;;;;4.55;1.10;;;;;;;;;;5004509;28;20061;-70
2022/05/25 11:45:56;;;;;;;2.30;0.85;;;;;;;;;;5007540;28;20526;-68
2022/05/25 11:48:27;;;;;;;3.45;1.42;;;;;;;;;;5008207;28;20104;-69
2022/05/25 11:51:15;;;;;;;17.30;3.40;;;;;;;;;;5015888;28;20052;-69
2022/05/25 11:53:50;;;;;;;1.60;1.08;;;;;;;;;;5027610;28;20064;-71
2022/05/25 11:56:26;;;;;;;3.38;1.10;;;;;;;;;;5030786;28;20134;-72
2022/05/25 11:59:20;;;;;;;6.63;1.15;;;;;;;;;;5029893;28;20053;-71
2022/05/25 12:02:17;;;;;;;2.25;1.00;;;;;;;;;;5021007;28;20134;-69
2022/05/25 12:05:15;;;;;;;4.63;1.35;;;;;;;;;;5027028;28;20144;-71
2022/05/25 12:08:08;;;;;;;3.95;1.20;;;;;;;;;;5022752;28;20053;-72
2022/05/25 12:10:38;;;;;;;4.30;0.93;;;;;;;;;;5028223;28;20084;-70
2022/05/25 12:13:49;;;;;;;4.05;1.00;;;;;;;;;;5029278;28;20076;-71
2022/05/25 12:16:30;;;;;;;2.53;1.10;;;;;;;;;;4987183;28;20331;-69
2022/05/25 12:19:11;;;;;;;2.03;0.98;;;;;;;;;;4988388;28;20080;-72
2022/05/25 12:21:47;;;;;;;2.05;1.00;;;;;;;;;;5005042;28;20054;-71
2022/05/25 12:24:21;;;;;;;6.22;1.60;;;;;;;;;;5001590;28;20045;-70
2022/05/25 12:26:47;;;;;;;2.90;0.80;;;;;;;;;;5006696;28;20642;-70
2022/05/25 12:29:37;;;;;;;2.42;0.95;;;;;;;;;;5004553;28;20045;-69
2022/05/25 12:32:05;;;;;;;6.75;1.30;;;;;;;;;;5002800;28;20092;-69
2022/05/25 12:34:46;;;;;;;3.60;0.93;;;;;;;;;;4988820;28;20065;-68
2022/05/25 12:37:17;;;;;;;3.50;0.80;;;;;;;;;;4988475;28;20112;-70
2022/05/25 12:39:43;;;;;;;2.60;0.63;;;;;;;;;;5001707;28;20144;-70
2022/05/25 12:42:24;;;;;;;1.55;0.80;;;;;;;;;;4985363;28;20144;-69
2022/05/25 12:50:55;;;;;;;1.60;0.82;;;;;;;;;;5018189;28;20057;-70
2022/05/25 12:53:24;;;;;;;2.97;0.60;;;;;;;;;;5021399;28;20064;-68
2022/05/25 12:56:12;;;;;;;2.72;1.10;;;;;;;;;;5017568;28;20068;-71
2022/05/25 12:58:44;;;;;;;1.25;0.68;;;;;;;;;;5010516;28;20068;-69
2022/05/25 13:01:21;;;;;;;2.17;1.08;;;;;;;;;;5023995;28;20061;-70
2022/05/25 13:03:47;;;;;;;1.60;0.60;;;;;;;;;;5024578;28;20403;-70
2022/05/25 13:06:37;;;;;;;4.10;1.20;;;;;;;;;;5024528;28;20068;-71
2022/05/25 13:09:10;;;;;;;3.67;1.00;;;;;;;;;;5025763;28;20049;-73
2022/05/25 13:11:43;;;;;;;5.70;2.55;;;;;;;;;;5019830;28;20045;-73
2022/05/25 13:14:20;;;;;;;4.32;1.05;;;;;;;;;;5024961;28;20459;-68
2022/05/25 13:16:46;;;;;;;2.53;1.13;;;;;;;;;;5031142;28;20481;-70
2022/05/25 13:19:44;;;;;;;2.60;1.38;;;;;;;;;;5032040;28;20044;-70
2022/05/25 13:22:20;;;;;;;1.63;0.77;;;;;;;;;;5028291;28;20041;-71
2022/05/25 13:25:08;;;;;;;1.85;0.98;;;;;;;;;;5027753;28;20067;-72
2022/05/25 13:27:53;;;;;;;6.53;0.73;;;;;;;;;;5027194;28;20120;-71
2022/05/25 13:30:23;;;;;;;2.80;0.65;;;;;;;;;;5023454;28;20125;-70
2022/05/25 13:32:51;;;;;;;4.13;0.82;;;;;;;;;;5027222;28;20076;-71
2022/05/25 13:35:20;;;;;;;2.80;1.20;;;;;;;;;;5026921;28;20041;-73
2022/05/25 13:37:59;;;;;;;2.80;1.08;;;;;;;;;;5032413;28;20049;-69
2022/05/25 13:40:28;;;;;;;6.75;1.30;;;;;;;;;;5032958;28;20060;-70
2022/05/25 13:42:55;;;;;;;2.40;0.80;;;;;;;;;;5030884;28;20080;-71
2022/05/25 13:45:23;;;;;;;1.30;0.90;;;;;;;;;;5033020;28;20056;-73
2022/05/25 13:47:53;;;;;;;2.65;0.63;;;;;;;;;;5024582;28;20079;-70
2022/05/25 13:50:40;;;;;;;4.10;0.70;;;;;;;;;;5031136;28;20041;-71
2022/05/25 13:53:10;;;;;;;5.97;0.88;;;;;;;;;;5038241;28;20060;-70
2022/05/25 13:55:42;;;;;;;3.17;1.10;;;;;;;;;;5029043;28;20046;-71
2022/05/25 13:58:14;;;;;;;2.55;0.63;;;;;;;;;;5045953;28;20056;-69
2022/05/25 14:00:44;;;;;;;1.83;0.63;;;;;;;;;;5030632;28;20129;-71
2022/05/25 14:03:34;;;;;;;2.53;0.85;;;;;;;;;;5043584;28;20076;-70
2022/05/25 14:06:04;;;;;;;2.15;0.80;;;;;;;;;;5040296;28;20041;-70
2022/05/25 14:11:16;;;;;;;;;;;;;;;;;;5033491;28;20373;-71
2022/05/25 14:13:42;;;;;;;2.00;0.70;;;;;;;;;;5029462;28;19946;-74
2022/05/25 14:16:14;;;;;;;2.55;0.55;;;;;;;;;;5029807;28;20101;-70
2022/05/25 14:18:50;;;;;;;2.88;1.00;;;;;;;;;;5038482;28;20049;-71
2022/05/25 14:21:41;;;;;;;4.50;0.90;;;;;;;;;;5043866;28;20053;-69
2022/05/25 14:24:30;;;;;;;4.07;1.30;;;;;;;;;;5033875;28;20046;-71
2022/05/25 14:27:02;;;;;;;4.05;0.73;;;;;;;;;;5041594;28;20041;-69
2022/05/25 14:29:30;;;;;;;9.50;1.73;;;;;;;;;;5031608;28;20053;-69
2022/05/25 14:32:31;;;;;;;1.50;0.52;;;;;;;;;;5032338;28;20639;-69
2022/05/25 14:35:05;;;;;;;6.85;0.80;;;;;;;;;;5035032;28;20041;-69
2022/05/25 14:37:34;;;;;;;;;;;;;;;;;;5041070;28;20052;-69
2022/05/25 14:40:15;;;;;;;1.75;0.57;;;;;;;;;;5063171;28;20121;-71
2022/05/25 14:42:54;;;;;;;7.53;1.10;;;;;;;;;;5029099;28;20571;-70
2022/05/25 14:45:20;;;;;;;3.33;0.93;;;;;;;;;;5030081;28;20041;-71
2022/05/25 14:47:49;;;;;;;4.63;1.20;;;;;;;;;;5028441;28;20034;-70
2022/05/25 14:50:22;;;;;;;3.05;0.70;;;;;;;;;;5033283;28;20065;-70
2022/05/25 14:53:12;;;;;;;2.35;0.75;;;;;;;;;;5029179;28;20083;-71
2022/05/25 14:55:47;;;;;;;5.90;1.20;;;;;;;;;;5032348;28;20049;-70
2022/05/25 14:58:20;;;;;;;6.45;1.20;;;;;;;;;;5044075;28;20048;-69
2022/05/25 15:01:10;;;;;;;2.17;0.82;;;;;;;;;;5035745;28;20041;-70
2022/05/25 15:03:52;;;;;;;0.90;0.70;;;;;;;;;;5029024;28;20155;-68
2022/05/25 15:06:21;;;;;;;0.95;0.50;;;;;;;;;;5018576;28;20380;-70
2022/05/25 15:08:53;;;;;;;2.95;1.10;;;;;;;;;;5025868;28;20045;-69
2022/05/25 15:11:22;;;;;;;3.78;1.13;;;;;;;;;;5020378;28;20042;-69
2022/05/25 15:20:04;;;;;;;;;;;;;;;;;;5028495;28;20067;-73
2022/05/25 15:22:30;;;;;;;;;;;;;;;;;;5042853;28;19925;-71
2022/05/25 15:25:03;;;;;;;3.80;0.82;;;;;;;;;;5033502;28;19921;-71
2022/05/25 15:27:34;;;;;;;1.92;0.60;;;;;;;;;;5028141;28;20052;-71
2022/05/25 15:30:01;;;;;;;1.27;0.55;;;;;;;;;;5035993;28;20049;-71
2022/05/25 15:32:27;;;;;;;3.55;0.90;;;;;;;;;;5036410;28;20522;-70
2022/05/25 15:34:53;;;;;;;4.22;0.88;;;;;;;;;;5042705;28;20048;-72
2022/05/25 15:37:25;;;;;;;1.65;0.70;;;;;;;;;;5040835;28;20503;-72
2022/05/25 15:39:51;;;;;;;2.35;0.73;;;;;;;;;;5036507;28;20041;-74
2022/05/25 15:42:17;;;;;;;0.70;0.55;;;;;;;;;;5028561;28;20140;-70
2022/05/25 15:44:43;;;;;;;0.90;0.70;;;;;;;;;;5030595;28;20069;-70
2022/05/25 15:47:13;;;;;;;1.98;0.63;;;;;;;;;;5033725;28;20049;-73
2022/05/25 15:49:43;;;;;;;4.13;0.90;;;;;;;;;;5030237;28;20495;-72
2022/05/25 15:52:11;;;;;;;6.47;0.90;;;;;;;;;;5018050;28;20048;-72
2022/05/25 15:54:38;;;;;;;3.85;0.90;;;;;;;;;;5019831;28;20373;-71
2022/05/25 15:57:04;;;;;;;3.38;0.90;;;;;;;;;;5024896;28;20451;-70
2022/05/25 15:59:30;;;;;;;1.80;0.68;;;;;;;;;;5024170;28;20131;-71
2022/05/25 16:01:59;;;;;;;3.47;0.70;;;;;;;;;;5033562;28;20451;-71
2022/05/25 16:04:31;;;;;;;4.05;1.10;;;;;;;;;;5026155;28;20053;-71
2022/05/25 16:07:00;;;;;;;1.05;0.77;;;;;;;;;;5025722;28;20662;-71